sensor_id;sensor_type;location;lat;lon;timestamp;pressure;altitude;pressure_sealevel;temperature;humidity
41044;BME280;51680;49.806;18.774;2023-05-19T00:01:20;98247.66;;;9.71;100.00
41044;BME280;51680;49.806;18.774;2023-05-19T00:04:22;98247.53;;;9.74;100.00
41044;BME280;51680;49.806;18.774;2023-05-19T00:07:28;98251.06;;;9.73;100.00
41044;BME280;51680;49.806;18.774;2023-05-19T00:10:31;98244.00;;;9.75;100.00
41044;BME280;51680;49.806;18.774;2023-05-19T00:13:33;98240.78;;;9.70;100.00
41044;BME280;51680;49.806;18.774;2023-05-19T00:16:37;98232.94;;;9.70;100.00
41044;BME280;51680;49.806;18.774;2023-05-19T00:19:39;98227.59;;;9.73;100.00
41044;BME280;51680;49.806;18.774;2023-05-19T00:22:40;98225.44;;;9.64;100.00
41044;BME280;51680;49.806;18.774;2023-05-19T00:25:55;98223.44;;;9.69;100.00
41044;BME280;51680;49.806;18.774;2023-05-19T00:29:15;98212.09;;;9.70;100.00
41044;BME280;51680;49.806;18.774;2023-05-19T00:32:36;98218.78;;;9.76;100.00
41044;BME280;51680;49.806;18.774;2023-05-19T00:35:55;98218.31;;;9.68;100.00
41044;BME280;51680;49.806;18.774;2023-05-19T00:38:57;98208.88;;;9.65;100.00
41044;BME280;51680;49.806;18.774;2023-05-19T00:41:58;98199.06;;;9.70;100.00
41044;BME280;51680;49.806;18.774;2023-05-19T00:45:00;98204.84;;;9.77;100.00
41044;BME280;51680;49.806;18.774;2023-05-19T00:48:23;98223.19;;;9.57;100.00
41044;BME280;51680;49.806;18.774;2023-05-19T00:51:44;98207.28;;;9.44;100.00
41044;BME280;51680;49.806;18.774;2023-05-19T00:55:05;98193.72;;;9.55;100.00
41044;BME280;51680;49.806;18.774;2023-05-19T00:58:27;98190.91;;;9.59;100.00
41044;BME280;51680;49.806;18.774;2023-05-19T01:01:48;98213.44;;;9.60;100.00
41044;BME280;51680;49.806;18.774;2023-05-19T01:05:10;98188.63;;;9.70;100.00
41044;BME280;51680;49.806;18.774;2023-05-19T01:08:32;98201.47;;;9.56;100.00
41044;BME280;51680;49.806;18.774;2023-05-19T01:11:52;98206.91;;;9.33;100.00
41044;BME280;51680;49.806;18.774;2023-05-19T01:15:13;98205.72;;;9.40;100.00
41044;BME280;51680;49.806;18.774;2023-05-19T01:18:42;98193.44;;;9.42;100.00
41044;BME280;51680;49.806;18.774;2023-05-19T01:26:21;98187.53;;;9.57;100.00
41044;BME280;51680;49.806;18.774;2023-05-19T01:33:53;98194.28;;;9.61;100.00
41044;BME280;51680;49.806;18.774;2023-05-19T01:37:14;98193.31;;;9.45;100.00
41044;BME280;51680;49.806;18.774;2023-05-19T01:40:35;98180.22;;;9.47;100.00
41044;BME280;51680;49.806;18.774;2023-05-19T01:43:56;98185.69;;;9.59;100.00
41044;BME280;51680;49.806;18.774;2023-05-19T01:47:17;98195.84;;;9.65;100.00
41044;BME280;51680;49.806;18.774;2023-05-19T01:50:39;98192.41;;;9.46;100.00
41044;BME280;51680;49.806;18.774;2023-05-19T01:54:00;98200.50;;;9.40;100.00
41044;BME280;51680;49.806;18.774;2023-05-19T01:57:24;98185.34;;;9.30;100.00
41044;BME280;51680;49.806;18.774;2023-05-19T02:00:52;98195.84;;;9.28;100.00
41044;BME280;51680;49.806;18.774;2023-05-19T02:04:18;98184.00;;;9.40;100.00
41044;BME280;51680;49.806;18.774;2023-05-19T02:08:05;98189.66;;;9.49;100.00
41044;BME280;51680;49.806;18.774;2023-05-19T02:11:13;98183.19;;;9.39;100.00
41044;BME280;51680;49.806;18.774;2023-05-19T02:14:24;98171.78;;;9.42;100.00
41044;BME280;51680;49.806;18.774;2023-05-19T02:17:47;98170.44;;;9.52;100.00
41044;BME280;51680;49.806;18.774;2023-05-19T02:21:09;98165.34;;;9.49;100.00
41044;BME280;51680;49.806;18.774;2023-05-19T02:24:14;98165.56;;;9.44;100.00
41044;BME280;51680;49.806;18.774;2023-05-19T02:27:16;98168.94;;;9.46;100.00
41044;BME280;51680;49.806;18.774;2023-05-19T02:30:33;98180.72;;;9.36;100.00
41044;BME280;51680;49.806;18.774;2023-05-19T02:33:35;98156.97;;;9.42;100.00
41044;BME280;51680;49.806;18.774;2023-05-19T02:36:38;98156.97;;;9.42;100.00
41044;BME280;51680;49.806;18.774;2023-05-19T02:39:43;98166.03;;;9.52;100.00
41044;BME280;51680;49.806;18.774;2023-05-19T02:42:46;98155.78;;;9.49;100.00
41044;BME280;51680;49.806;18.774;2023-05-19T02:46:06;98151.63;;;9.45;100.00
41044;BME280;51680;49.806;18.774;2023-05-19T02:49:27;98161.09;;;9.29;100.00
41044;BME280;51680;49.806;18.774;2023-05-19T02:52:30;98157.69;;;9.27;100.00
41044;BME280;51680;49.806;18.774;2023-05-19T02:55:48;98161.13;;;9.46;100.00
41044;BME280;51680;49.806;18.774;2023-05-19T02:59:06;98160.50;;;9.41;100.00
41044;BME280;51680;49.806;18.774;2023-05-19T03:02:27;98158.53;;;9.46;100.00
41044;BME280;51680;49.806;18.774;2023-05-19T03:05:48;98162.41;;;9.38;100.00
41044;BME280;51680;49.806;18.774;2023-05-19T03:09:08;98174.47;;;9.22;100.00
41044;BME280;51680;49.806;18.774;2023-05-19T03:12:31;98166.44;;;9.26;100.00
41044;BME280;51680;49.806;18.774;2023-05-19T03:15:51;98159.19;;;9.33;100.00
41044;BME280;51680;49.806;18.774;2023-05-19T03:19:30;98176.00;;;9.44;100.00
41044;BME280;51680;49.806;18.774;2023-05-19T03:22:51;98155.16;;;9.44;100.00
41044;BME280;51680;49.806;18.774;2023-05-19T03:26:06;98153.94;;;9.51;100.00
41044;BME280;51680;49.806;18.774;2023-05-19T03:29:09;98151.31;;;9.70;100.00
41044;BME280;51680;49.806;18.774;2023-05-19T03:32:11;98165.41;;;9.66;100.00
41044;BME280;51680;49.806;18.774;2023-05-19T03:35:27;98159.81;;;9.73;100.00
41044;BME280;51680;49.806;18.774;2023-05-19T03:38:47;98171.59;;;9.63;100.00
41044;BME280;51680;49.806;18.774;2023-05-19T03:41:49;98177.91;;;9.76;100.00
41044;BME280;51680;49.806;18.774;2023-05-19T03:44:53;98161.75;;;9.87;100.00
41044;BME280;51680;49.806;18.774;2023-05-19T03:47:55;98164.28;;;9.88;100.00
41044;BME280;51680;49.806;18.774;2023-05-19T03:51:20;98166.75;;;9.91;100.00
41044;BME280;51680;49.806;18.774;2023-05-19T03:54:24;98163.28;;;9.91;100.00
41044;BME280;51680;49.806;18.774;2023-05-19T03:57:26;98151.81;;;9.95;100.00
41044;BME280;51680;49.806;18.774;2023-05-19T04:00:48;98159.13;;;10.05;100.00
41044;BME280;51680;49.806;18.774;2023-05-19T04:03:50;98169.81;;;9.99;100.00
41044;BME280;51680;49.806;18.774;2023-05-19T04:07:07;98173.09;;;9.86;100.00
41044;BME280;51680;49.806;18.774;2023-05-19T04:10:27;98178.38;;;9.84;100.00
41044;BME280;51680;49.806;18.774;2023-05-19T04:13:48;98178.63;;;9.80;100.00
41044;BME280;51680;49.806;18.774;2023-05-19T04:17:09;98169.56;;;9.87;100.00
41044;BME280;51680;49.806;18.774;2023-05-19T04:20:29;98169.81;;;9.99;100.00
41044;BME280;51680;49.806;18.774;2023-05-19T04:23:50;98174.63;;;10.08;100.00
41044;BME280;51680;49.806;18.774;2023-05-19T04:27:11;98177.16;;;10.10;100.00
41044;BME280;51680;49.806;18.774;2023-05-19T04:30:32;98178.91;;;10.09;100.00
41044;BME280;51680;49.806;18.774;2023-05-19T04:33:36;98184.47;;;10.20;100.00
41044;BME280;51680;49.806;18.774;2023-05-19T04:36:38;98180.78;;;10.24;100.00
41044;BME280;51680;49.806;18.774;2023-05-19T04:39:40;98193.66;;;10.27;100.00
41044;BME280;51680;49.806;18.774;2023-05-19T04:42:57;98186.13;;;10.38;100.00
41044;BME280;51680;49.806;18.774;2023-05-19T04:46:17;98181.91;;;10.19;100.00
41044;BME280;51680;49.806;18.774;2023-05-19T04:49:26;98189.13;;;10.14;100.00
41044;BME280;51680;49.806;18.774;2023-05-19T04:52:28;98190.50;;;10.21;100.00
41044;BME280;51680;49.806;18.774;2023-05-19T04:55:30;98196.25;;;10.27;100.00
41044;BME280;51680;49.806;18.774;2023-05-19T04:58:33;98194.44;;;10.29;100.00
41044;BME280;51680;49.806;18.774;2023-05-19T05:01:34;98181.84;;;10.20;100.00
41044;BME280;51680;49.806;18.774;2023-05-19T05:04:43;98188.75;;;10.21;100.00
41044;BME280;51680;49.806;18.774;2023-05-19T05:07:46;98195.34;;;10.11;100.00
41044;BME280;51680;49.806;18.774;2023-05-19T05:11:07;98190.44;;;10.22;100.00
41044;BME280;51680;49.806;18.774;2023-05-19T05:14:28;98192.59;;;10.31;100.00
41044;BME280;51680;49.806;18.774;2023-05-19T05:17:49;98197.50;;;10.37;100.00
41044;BME280;51680;49.806;18.774;2023-05-19T05:21:12;98186.72;;;10.43;100.00
41044;BME280;51680;49.806;18.774;2023-05-19T05:24:33;98186.00;;;10.74;100.00
41044;BME280;51680;49.806;18.774;2023-05-19T05:27:56;98188.03;;;11.01;100.00
41044;BME280;51680;49.806;18.774;2023-05-19T05:30:58;98186.44;;;11.14;100.00
41044;BME280;51680;49.806;18.774;2023-05-19T05:34:00;98184.72;;;11.30;100.00
41044;BME280;51680;49.806;18.774;2023-05-19T05:37:06;98196.94;;;11.45;99.54
41044;BME280;51680;49.806;18.774;2023-05-19T05:40:10;98191.22;;;11.39;98.80
41044;BME280;51680;49.806;18.774;2023-05-19T05:43:27;98187.69;;;11.55;98.54
41044;BME280;51680;49.806;18.774;2023-05-19T05:46:33;98195.44;;;11.72;98.18
41044;BME280;51680;49.806;18.774;2023-05-19T05:49:35;98186.34;;;11.79;97.14
41044;BME280;51680;49.806;18.774;2023-05-19T05:52:40;98193.00;;;11.85;96.35
41044;BME280;51680;49.806;18.774;2023-05-19T05:55:57;98202.88;;;11.80;96.48
41044;BME280;51680;49.806;18.774;2023-05-19T05:59:05;98202.97;;;11.78;96.54
41044;BME280;51680;49.806;18.774;2023-05-19T06:02:07;98200.00;;;11.84;96.32
41044;BME280;51680;49.806;18.774;2023-05-19T06:05:09;98200.16;;;11.81;96.48
41044;BME280;51680;49.806;18.774;2023-05-19T06:08:16;98200.25;;;11.80;96.57
41044;BME280;51680;49.806;18.774;2023-05-19T06:11:37;98206.34;;;11.80;96.25
41044;BME280;51680;49.806;18.774;2023-05-19T06:14:39;98196.44;;;12.01;96.24
41044;BME280;51680;49.806;18.774;2023-05-19T06:18:06;98204.59;;;12.10;96.17
41044;BME280;51680;49.806;18.774;2023-05-19T06:21:08;98211.00;;;12.20;94.80
41044;BME280;51680;49.806;18.774;2023-05-19T06:24:14;98200.69;;;12.33;94.19
41044;BME280;51680;49.806;18.774;2023-05-19T06:27:15;98205.81;;;12.34;93.64
41044;BME280;51680;49.806;18.774;2023-05-19T06:30:17;98210.81;;;12.39;93.43
41044;BME280;51680;49.806;18.774;2023-05-19T06:33:51;98209.78;;;12.41;93.59
41044;BME280;51680;49.806;18.774;2023-05-19T06:37:12;98209.94;;;12.38;93.82
41044;BME280;51680;49.806;18.774;2023-05-19T06:40:36;98214.94;;;12.43;93.59
41044;BME280;51680;49.806;18.774;2023-05-19T06:43:57;98223.38;;;12.48;93.09
41044;BME280;51680;49.806;18.774;2023-05-19T06:47:18;98223.66;;;12.57;93.22
41044;BME280;51680;49.806;18.774;2023-05-19T06:50:38;98219.75;;;12.64;92.37
41044;BME280;51680;49.806;18.774;2023-05-19T06:53:40;98218.03;;;12.63;91.76
41044;BME280;51680;49.806;18.774;2023-05-19T06:56:44;98216.19;;;12.65;91.49
41044;BME280;51680;49.806;18.774;2023-05-19T06:59:48;98214.81;;;12.74;91.57
41044;BME280;51680;49.806;18.774;2023-05-19T07:02:49;98222.56;;;12.75;91.25
41044;BME280;51680;49.806;18.774;2023-05-19T07:05:51;98218.47;;;12.85;91.83
41044;BME280;51680;49.806;18.774;2023-05-19T07:08:53;98214.22;;;12.98;90.37
41044;BME280;51680;49.806;18.774;2023-05-19T07:12:15;98218.00;;;12.93;89.73
41044;BME280;51680;49.806;18.774;2023-05-19T07:15:35;98226.72;;;12.79;89.75
41044;BME280;51680;49.806;18.774;2023-05-19T07:18:56;98230.63;;;12.86;90.91
41044;BME280;51680;49.806;18.774;2023-05-19T07:22:16;98224.72;;;12.98;90.17
41044;BME280;51680;49.806;18.774;2023-05-19T07:25:27;98219.47;;;12.98;89.92
41044;BME280;51680;49.806;18.774;2023-05-19T07:28:31;98216.47;;;13.04;89.83
41044;BME280;51680;49.806;18.774;2023-05-19T07:31:47;98231.81;;;13.10;89.23
41044;BME280;51680;49.806;18.774;2023-05-19T07:35:07;98225.63;;;13.25;88.34
41044;BME280;51680;49.806;18.774;2023-05-19T07:38:09;98222.09;;;13.40;88.66
41044;BME280;51680;49.806;18.774;2023-05-19T07:41:11;98225.34;;;13.58;88.00
41044;BME280;51680;49.806;18.774;2023-05-19T07:44:14;98226.16;;;13.72;87.48
41044;BME280;51680;49.806;18.774;2023-05-19T07:47:34;98233.28;;;13.70;86.96
41044;BME280;51680;49.806;18.774;2023-05-19T07:50:36;98242.25;;;13.80;86.34
41044;BME280;51680;49.806;18.774;2023-05-19T07:53:38;98242.34;;;13.93;86.34
41044;BME280;51680;49.806;18.774;2023-05-19T07:56:59;98239.25;;;14.13;86.54
41044;BME280;51680;49.806;18.774;2023-05-19T08:00:19;98236.06;;;14.22;85.75
41044;BME280;51680;49.806;18.774;2023-05-19T08:03:37;98237.25;;;14.30;84.95
41044;BME280;51680;49.806;18.774;2023-05-19T08:06:39;98241.59;;;14.31;85.15
41044;BME280;51680;49.806;18.774;2023-05-19T08:09:42;98243.41;;;14.43;84.71
41044;BME280;51680;49.806;18.774;2023-05-19T08:12:43;98238.56;;;14.37;83.62
41044;BME280;51680;49.806;18.774;2023-05-19T08:15:46;98236.03;;;14.36;83.96
41044;BME280;51680;49.806;18.774;2023-05-19T08:18:48;98242.44;;;14.18;84.06
41044;BME280;51680;49.806;18.774;2023-05-19T08:21:50;98244.00;;;14.34;84.19
41044;BME280;51680;49.806;18.774;2023-05-19T08:25:10;98235.88;;;14.51;84.16
41044;BME280;51680;49.806;18.774;2023-05-19T08:28:13;98243.84;;;14.50;82.92
41044;BME280;51680;49.806;18.774;2023-05-19T08:31:35;98243.75;;;14.51;82.85
41044;BME280;51680;49.806;18.774;2023-05-19T08:34:36;98238.69;;;14.48;82.76
41044;BME280;51680;49.806;18.774;2023-05-19T09:07:20;98235.88;;;14.51;82.58
41044;BME280;51680;49.806;18.774;2023-05-19T09:10:24;98229.94;;;14.74;82.73
41044;BME280;51680;49.806;18.774;2023-05-19T09:13:26;98241.09;;;14.90;82.81
41044;BME280;51680;49.806;18.774;2023-05-19T09:16:28;98242.25;;;14.99;82.23
41044;BME280;51680;49.806;18.774;2023-05-19T09:19:31;98234.88;;;14.91;82.50
41044;BME280;51680;49.806;18.774;2023-05-19T09:22:39;98231.44;;;15.03;81.02
41044;BME280;51680;49.806;18.774;2023-05-19T09:25:45;98236.78;;;15.14;80.59
41044;BME280;51680;49.806;18.774;2023-05-19T09:29:12;98240.03;;;15.30;80.52
41044;BME280;51680;49.806;18.774;2023-05-19T09:32:33;98248.38;;;15.37;80.11
41044;BME280;51680;49.806;18.774;2023-05-19T09:35:54;98240.38;;;15.38;80.24
41044;BME280;51680;49.806;18.774;2023-05-19T09:39:17;98236.69;;;15.53;80.63
41044;BME280;51680;49.806;18.774;2023-05-19T09:42:38;98232.34;;;15.65;80.12
41044;BME280;51680;49.806;18.774;2023-05-19T09:45:59;98231.06;;;15.70;79.84
41044;BME280;51680;49.806;18.774;2023-05-19T09:49:07;98228.50;;;15.81;79.95
41044;BME280;51680;49.806;18.774;2023-05-19T09:52:09;98242.34;;;15.96;80.00
41044;BME280;51680;49.806;18.774;2023-05-19T09:55:13;98226.78;;;15.93;79.22
41044;BME280;51680;49.806;18.774;2023-05-19T09:58:15;98242.63;;;15.80;79.51
41044;BME280;51680;49.806;18.774;2023-05-19T10:01:17;98237.38;;;15.80;80.11
41044;BME280;51680;49.806;18.774;2023-05-19T10:04:30;98240.06;;;15.91;79.97
41044;BME280;51680;49.806;18.774;2023-05-19T10:07:33;98240.69;;;15.95;79.48
41044;BME280;51680;49.806;18.774;2023-05-19T10:10:37;98237.50;;;16.02;79.21
41044;BME280;51680;49.806;18.774;2023-05-19T10:13:50;98228.97;;;16.22;79.37
41044;BME280;51680;49.806;18.774;2023-05-19T10:16:54;98231.03;;;16.42;78.42
41044;BME280;51680;49.806;18.774;2023-05-19T10:19:56;98220.72;;;16.39;77.88
41044;BME280;51680;49.806;18.774;2023-05-19T10:23:10;98229.22;;;16.19;77.98
41044;BME280;51680;49.806;18.774;2023-05-19T10:26:32;98218.22;;;16.25;77.78
41044;BME280;51680;49.806;18.774;2023-05-19T10:29:56;98227.72;;;16.51;78.44
41044;BME280;51680;49.806;18.774;2023-05-19T10:33:20;98218.59;;;16.44;77.62
41044;BME280;51680;49.806;18.774;2023-05-19T10:36:36;98222.97;;;16.56;76.36
41044;BME280;51680;49.806;18.774;2023-05-19T10:39:41;98233.25;;;16.59;76.94
41044;BME280;51680;49.806;18.774;2023-05-19T10:42:52;98226.91;;;16.62;75.08
41044;BME280;51680;49.806;18.774;2023-05-19T10:46:23;98222.56;;;16.50;76.48
41044;BME280;51680;49.806;18.774;2023-05-19T10:49:45;98225.84;;;16.64;76.99
41044;BME280;51680;49.806;18.774;2023-05-19T10:52:51;98223.88;;;16.90;76.95
41044;BME280;51680;49.806;18.774;2023-05-19T10:55:55;98215.88;;;17.02;75.62
41044;BME280;51680;49.806;18.774;2023-05-19T10:59:02;98213.16;;;17.26;74.87
41044;BME280;51680;49.806;18.774;2023-05-19T11:02:05;98215.59;;;17.40;74.24
41044;BME280;51680;49.806;18.774;2023-05-19T11:05:07;98215.44;;;17.41;73.98
41044;BME280;51680;49.806;18.774;2023-05-19T11:08:10;98218.22;;;17.51;74.47
41044;BME280;51680;49.806;18.774;2023-05-19T11:11:13;98222.41;;;17.64;74.06
41044;BME280;51680;49.806;18.774;2023-05-19T11:14:19;98223.38;;;17.63;73.61
41044;BME280;51680;49.806;18.774;2023-05-19T11:17:47;98214.97;;;17.58;72.77
41044;BME280;51680;49.806;18.774;2023-05-19T11:20:59;98214.25;;;17.45;73.19
41044;BME280;51680;49.806;18.774;2023-05-19T11:24:01;98222.53;;;17.52;73.83
41044;BME280;51680;49.806;18.774;2023-05-19T11:27:23;98216.31;;;17.42;72.41
41044;BME280;51680;49.806;18.774;2023-05-19T11:30:44;98224.47;;;17.50;73.51
41044;BME280;51680;49.806;18.774;2023-05-19T11:33:48;98224.81;;;17.67;73.52
41044;BME280;51680;49.806;18.774;2023-05-19T11:36:51;98226.47;;;17.79;73.82
41044;BME280;51680;49.806;18.774;2023-05-19T11:39:53;98219.84;;;18.07;73.21
41044;BME280;51680;49.806;18.774;2023-05-19T11:42:55;98213.19;;;18.35;72.23
41044;BME280;51680;49.806;18.774;2023-05-19T11:45:59;98211.28;;;18.57;71.34
41044;BME280;51680;49.806;18.774;2023-05-19T11:49:03;98220.19;;;18.56;70.58
41044;BME280;51680;49.806;18.774;2023-05-19T11:52:05;98211.69;;;18.42;69.96
41044;BME280;51680;49.806;18.774;2023-05-19T11:55:21;98214.19;;;18.75;71.85
41044;BME280;51680;49.806;18.774;2023-05-19T11:58:42;98206.19;;;19.06;71.22
41044;BME280;51680;49.806;18.774;2023-05-19T12:02:16;98214.13;;;19.06;69.05
41044;BME280;51680;49.806;18.774;2023-05-19T12:05:37;98215.34;;;19.02;69.50
41044;BME280;51680;49.806;18.774;2023-05-19T12:08:58;98213.78;;;19.20;70.51
41044;BME280;51680;49.806;18.774;2023-05-19T12:12:01;98207.72;;;19.50;70.15
41044;BME280;51680;49.806;18.774;2023-05-19T12:15:04;98196.31;;;19.59;69.88
41044;BME280;51680;49.806;18.774;2023-05-19T12:18:07;98198.53;;;19.63;69.08
41044;BME280;51680;49.806;18.774;2023-05-19T12:21:09;98200.28;;;19.74;68.31
41044;BME280;51680;49.806;18.774;2023-05-19T12:24:11;98187.63;;;19.47;68.40
41044;BME280;51680;49.806;18.774;2023-05-19T12:27:16;98194.03;;;19.45;69.08
41044;BME280;51680;49.806;18.774;2023-05-19T12:30:25;98193.75;;;19.48;67.90
41044;BME280;51680;49.806;18.774;2023-05-19T12:33:48;98191.44;;;19.34;68.50
41044;BME280;51680;49.806;18.774;2023-05-19T12:37:10;98187.88;;;19.44;68.49
41044;BME280;51680;49.806;18.774;2023-05-19T12:40:14;98192.28;;;19.34;67.54
41044;BME280;51680;49.806;18.774;2023-05-19T12:43:20;98187.19;;;19.22;67.93
41044;BME280;51680;49.806;18.774;2023-05-19T12:46:22;98180.81;;;19.24;68.49
41044;BME280;51680;49.806;18.774;2023-05-19T12:49:25;98181.78;;;19.03;68.23
41044;BME280;51680;49.806;18.774;2023-05-19T12:52:28;98180.13;;;19.02;68.78
41044;BME280;51680;49.806;18.774;2023-05-19T12:55:29;98176.38;;;19.25;69.08
41044;BME280;51680;49.806;18.774;2023-05-19T12:58:32;98174.63;;;19.44;68.25
41044;BME280;51680;49.806;18.774;2023-05-19T13:01:35;98168.44;;;19.25;68.67
41044;BME280;51680;49.806;18.774;2023-05-19T13:04:38;98172.09;;;19.13;68.63
41044;BME280;51680;49.806;18.774;2023-05-19T13:07:41;98168.16;;;19.07;68.66
41044;BME280;51680;49.806;18.774;2023-05-19T13:10:53;98169.25;;;19.05;69.80
41044;BME280;51680;49.806;18.774;2023-05-19T13:13:55;98167.00;;;19.00;69.35
41044;BME280;51680;49.806;18.774;2023-05-19T13:16:57;98168.09;;;18.98;69.72
41044;BME280;51680;49.806;18.774;2023-05-19T13:20:00;98173.59;;;19.06;69.07
41044;BME280;51680;49.806;18.774;2023-05-19T13:23:02;98171.63;;;18.78;69.42
41044;BME280;51680;49.806;18.774;2023-05-19T13:26:23;98170.44;;;18.71;69.91
41044;BME280;51680;49.806;18.774;2023-05-19T13:29:44;98164.66;;;18.77;70.02
41044;BME280;51680;49.806;18.774;2023-05-19T13:33:04;98166.94;;;18.50;70.75
41044;BME280;51680;49.806;18.774;2023-05-19T13:36:26;98171.22;;;18.41;70.42
41044;BME280;51680;49.806;18.774;2023-05-19T13:39:46;98165.53;;;18.46;70.81
41044;BME280;51680;49.806;18.774;2023-05-19T13:42:48;98165.34;;;18.26;70.69
41044;BME280;51680;49.806;18.774;2023-05-19T13:45:51;98159.56;;;18.33;71.33
41044;BME280;51680;49.806;18.774;2023-05-19T13:48:52;98166.22;;;18.48;71.77
41044;BME280;51680;49.806;18.774;2023-05-19T13:51:56;98155.53;;;18.70;71.73
41044;BME280;51680;49.806;18.774;2023-05-19T13:54:58;98153.13;;;18.67;70.44
41044;BME280;51680;49.806;18.774;2023-05-19T13:58:00;98163.84;;;18.45;70.88
41044;BME280;51680;49.806;18.774;2023-05-19T14:01:02;98162.94;;;18.35;71.42
41044;BME280;51680;49.806;18.774;2023-05-19T14:04:04;98155.28;;;18.52;71.52
41044;BME280;51680;49.806;18.774;2023-05-19T14:07:07;98167.03;;;18.39;71.59
41044;BME280;51680;49.806;18.774;2023-05-19T14:10:10;98163.13;;;18.42;71.33
41044;BME280;51680;49.806;18.774;2023-05-19T14:13:11;98164.88;;;18.53;71.20
41044;BME280;51680;49.806;18.774;2023-05-19T14:16:13;98155.72;;;18.57;71.44
41044;BME280;51680;49.806;18.774;2023-05-19T14:19:33;98166.09;;;18.49;70.67
41044;BME280;51680;49.806;18.774;2023-05-19T14:22:36;98167.19;;;18.47;71.74
41044;BME280;51680;49.806;18.774;2023-05-19T14:25:38;98171.72;;;18.56;71.51
41044;BME280;51680;49.806;18.774;2023-05-19T14:28:40;98164.19;;;18.72;71.05
41044;BME280;51680;49.806;18.774;2023-05-19T14:31:42;98169.50;;;18.72;71.06
41044;BME280;51680;49.806;18.774;2023-05-19T14:34:44;98167.34;;;18.66;70.75
41044;BME280;51680;49.806;18.774;2023-05-19T14:37:47;98175.34;;;18.55;71.24
41044;BME280;51680;49.806;18.774;2023-05-19T14:40:48;98174.66;;;18.53;71.51
41044;BME280;51680;49.806;18.774;2023-05-19T14:43:50;98181.41;;;18.46;71.26
41044;BME280;51680;49.806;18.774;2023-05-19T14:46:52;98174.88;;;18.50;71.14
41044;BME280;51680;49.806;18.774;2023-05-19T14:49:54;98181.03;;;18.50;70.75
41044;BME280;51680;49.806;18.774;2023-05-19T14:52:57;98183.91;;;18.47;70.86
41044;BME280;51680;49.806;18.774;2023-05-19T14:55:59;98183.34;;;18.44;71.03
41044;BME280;51680;49.806;18.774;2023-05-19T14:59:01;98178.81;;;18.35;71.46
41044;BME280;51680;49.806;18.774;2023-05-19T15:02:04;98180.47;;;18.36;71.79
41044;BME280;51680;49.806;18.774;2023-05-19T15:05:06;98184.97;;;18.13;71.77
41044;BME280;51680;49.806;18.774;2023-05-19T15:08:09;98184.59;;;17.75;72.20
41044;BME280;51680;49.806;18.774;2023-05-19T15:11:11;98185.31;;;17.66;72.58
41044;BME280;51680;49.806;18.774;2023-05-19T15:14:31;98189.06;;;17.63;72.48
41044;BME280;51680;49.806;18.774;2023-05-19T15:17:52;98196.34;;;17.38;72.91
41044;BME280;51680;49.806;18.774;2023-05-19T15:21:12;98196.09;;;17.19;73.63
41044;BME280;51680;49.806;18.774;2023-05-19T15:24:34;98206.75;;;16.95;74.62
41044;BME280;51680;49.806;18.774;2023-05-19T15:27:54;98194.63;;;16.93;74.77
41044;BME280;51680;49.806;18.774;2023-05-19T15:31:15;98191.44;;;16.66;75.81
41044;BME280;51680;49.806;18.774;2023-05-19T15:34:35;98192.38;;;16.54;76.83
41044;BME280;51680;49.806;18.774;2023-05-19T15:37:56;98188.94;;;16.64;75.82
41044;BME280;51680;49.806;18.774;2023-05-19T15:41:17;98183.94;;;16.83;75.80
41044;BME280;51680;49.806;18.774;2023-05-19T15:44:38;98182.13;;;16.73;75.17
41044;BME280;51680;49.806;18.774;2023-05-19T15:47:58;98186.75;;;16.58;76.02
41044;BME280;51680;49.806;18.774;2023-05-19T15:51:19;98175.66;;;16.77;75.54
41044;BME280;51680;49.806;18.774;2023-05-19T15:54:39;98177.22;;;16.79;75.42
41044;BME280;51680;49.806;18.774;2023-05-19T15:58:01;98180.34;;;16.84;75.32
41044;BME280;51680;49.806;18.774;2023-05-19T16:01:21;98186.47;;;16.85;75.21
41044;BME280;51680;49.806;18.774;2023-05-19T16:04:42;98184.41;;;16.77;75.79
41044;BME280;51680;49.806;18.774;2023-05-19T16:08:02;98188.41;;;16.83;75.74
41044;BME280;51680;49.806;18.774;2023-05-19T16:11:23;98188.00;;;16.76;75.84
41044;BME280;51680;49.806;18.774;2023-05-19T16:14:27;98198.47;;;16.54;76.24
41044;BME280;51680;49.806;18.774;2023-05-19T16:17:32;98198.03;;;16.37;76.90
41044;BME280;51680;49.806;18.774;2023-05-19T16:20:34;98194.97;;;16.43;77.22
41044;BME280;51680;49.806;18.774;2023-05-19T16:23:36;98200.84;;;16.46;76.90
41044;BME280;51680;49.806;18.774;2023-05-19T16:26:38;98182.84;;;16.40;77.15
41044;BME280;51680;49.806;18.774;2023-05-19T16:29:41;98195.00;;;16.30;77.51
41044;BME280;51680;49.806;18.774;2023-05-19T16:32:42;98191.00;;;16.25;77.59
41044;BME280;51680;49.806;18.774;2023-05-19T16:35:44;98189.13;;;16.27;77.74
41044;BME280;51680;49.806;18.774;2023-05-19T16:38:46;98196.34;;;16.12;78.25
41044;BME280;51680;49.806;18.774;2023-05-19T16:41:48;98195.63;;;16.10;78.34
41044;BME280;51680;49.806;18.774;2023-05-19T16:44:51;98205.38;;;15.97;78.50
41044;BME280;51680;49.806;18.774;2023-05-19T16:47:53;98202.34;;;15.91;78.68
41044;BME280;51680;49.806;18.774;2023-05-19T16:50:55;98199.94;;;15.88;78.87
41044;BME280;51680;49.806;18.774;2023-05-19T16:53:56;98198.06;;;15.77;78.92
41044;BME280;51680;49.806;18.774;2023-05-19T16:56:58;98200.72;;;15.77;79.15
41044;BME280;51680;49.806;18.774;2023-05-19T17:00:01;98200.41;;;15.69;79.76
41044;BME280;51680;49.806;18.774;2023-05-19T17:03:03;98196.41;;;15.76;79.29
41044;BME280;51680;49.806;18.774;2023-05-19T17:06:05;98188.56;;;15.87;79.01
41044;BME280;51680;49.806;18.774;2023-05-19T17:09:25;98196.50;;;15.75;79.36
41044;BME280;51680;49.806;18.774;2023-05-19T17:12:46;98211.47;;;15.62;79.70
41044;BME280;51680;49.806;18.774;2023-05-19T17:16:08;98212.81;;;15.44;80.31